sensor_id;sensor_type;location;lat;lon;timestamp;temperature;humidity
19437;DHT22;9854;50.968;4.168;2022-07-17T00:02:05;18.50;99.90
19437;DHT22;9854;50.968;4.168;2022-07-17T00:04:30;18.40;99.90
19437;DHT22;9854;50.968;4.168;2022-07-17T00:06:56;18.30;99.90
19437;DHT22;9854;50.968;4.168;2022-07-17T00:09:22;18.40;99.90
19437;DHT22;9854;50.968;4.168;2022-07-17T00:11:47;18.60;99.90
19437;DHT22;9854;50.968;4.168;2022-07-17T00:14:13;18.60;99.90
19437;DHT22;9854;50.968;4.168;2022-07-17T00:16:38;18.50;99.90
19437;DHT22;9854;50.968;4.168;2022-07-17T00:19:04;18.60;99.90
19437;DHT22;9854;50.968;4.168;2022-07-17T00:21:30;18.50;99.90
19437;DHT22;9854;50.968;4.168;2022-07-17T00:23:55;18.50;99.90
19437;DHT22;9854;50.968;4.168;2022-07-17T00:26:21;18.20;99.90
19437;DHT22;9854;50.968;4.168;2022-07-17T00:28:46;17.90;99.90
19437;DHT22;9854;50.968;4.168;2022-07-17T00:31:12;17.80;99.90
19437;DHT22;9854;50.968;4.168;2022-07-17T00:33:38;17.50;99.90
19437;DHT22;9854;50.968;4.168;2022-07-17T00:36:04;17.50;99.90
19437;DHT22;9854;50.968;4.168;2022-07-17T00:38:29;17.50;99.90
19437;DHT22;9854;50.968;4.168;2022-07-17T00:40:56;17.40;99.90
19437;DHT22;9854;50.968;4.168;2022-07-17T00:43:23;17.60;99.90
19437;DHT22;9854;50.968;4.168;2022-07-17T00:46:00;17.90;99.90
19437;DHT22;9854;50.968;4.168;2022-07-17T00:48:26;18.00;99.90
19437;DHT22;9854;50.968;4.168;2022-07-17T00:50:52;17.80;99.90
19437;DHT22;9854;50.968;4.168;2022-07-17T00:53:18;17.70;99.90
19437;DHT22;9854;50.968;4.168;2022-07-17T00:55:46;17.60;99.90
19437;DHT22;9854;50.968;4.168;2022-07-17T00:58:24;17.60;99.90
19437;DHT22;9854;50.968;4.168;2022-07-17T01:00:52;17.70;99.90
19437;DHT22;9854;50.968;4.168;2022-07-17T01:03:19;17.50;99.90
19437;DHT22;9854;50.968;4.168;2022-07-17T01:05:46;17.50;99.90
19437;DHT22;9854;50.968;4.168;2022-07-17T01:08:12;17.40;99.90
19437;DHT22;9854;50.968;4.168;2022-07-17T01:10:38;17.30;99.90
19437;DHT22;9854;50.968;4.168;2022-07-17T01:13:04;17.30;99.90
19437;DHT22;9854;50.968;4.168;2022-07-17T01:15:32;17.50;99.90
19437;DHT22;9854;50.968;4.168;2022-07-17T01:17:58;17.70;99.90
19437;DHT22;9854;50.968;4.168;2022-07-17T01:20:24;17.70;99.90
19437;DHT22;9854;50.968;4.168;2022-07-17T01:22:51;17.50;99.90
19437;DHT22;9854;50.968;4.168;2022-07-17T01:25:20;17.80;99.90
19437;DHT22;9854;50.968;4.168;2022-07-17T01:27:46;18.00;99.90
19437;DHT22;9854;50.968;4.168;2022-07-17T01:30:12;18.20;99.90
19437;DHT22;9854;50.968;4.168;2022-07-17T01:32:39;18.30;99.90
19437;DHT22;9854;50.968;4.168;2022-07-17T01:35:06;18.30;99.90
19437;DHT22;9854;50.968;4.168;2022-07-17T01:37:32;17.90;99.90
19437;DHT22;9854;50.968;4.168;2022-07-17T01:39:58;17.60;99.90
19437;DHT22;9854;50.968;4.168;2022-07-17T01:42:25;17.30;99.90
19437;DHT22;9854;50.968;4.168;2022-07-17T01:44:52;17.20;99.90
19437;DHT22;9854;50.968;4.168;2022-07-17T01:47:18;17.50;99.90
19437;DHT22;9854;50.968;4.168;2022-07-17T01:49:46;17.70;99.90
19437;DHT22;9854;50.968;4.168;2022-07-17T01:52:12;17.50;99.90
19437;DHT22;9854;50.968;4.168;2022-07-17T01:54:38;17.40;99.90
19437;DHT22;9854;50.968;4.168;2022-07-17T01:57:04;17.10;99.90
19437;DHT22;9854;50.968;4.168;2022-07-17T01:59:29;16.90;99.90
19437;DHT22;9854;50.968;4.168;2022-07-17T02:01:55;16.70;99.90
19437;DHT22;9854;50.968;4.168;2022-07-17T02:04:20;16.60;99.90
19437;DHT22;9854;50.968;4.168;2022-07-17T02:06:46;16.50;99.90
19437;DHT22;9854;50.968;4.168;2022-07-17T02:09:11;16.30;99.90
19437;DHT22;9854;50.968;4.168;2022-07-17T02:11:37;16.40;99.90
19437;DHT22;9854;50.968;4.168;2022-07-17T02:14:03;16.30;99.90
19437;DHT22;9854;50.968;4.168;2022-07-17T02:16:28;16.00;99.90
19437;DHT22;9854;50.968;4.168;2022-07-17T02:18:54;16.10;99.90
19437;DHT22;9854;50.968;4.168;2022-07-17T02:21:20;16.40;99.90
19437;DHT22;9854;50.968;4.168;2022-07-17T02:23:45;16.30;99.90
19437;DHT22;9854;50.968;4.168;2022-07-17T02:26:11;16.30;99.90
19437;DHT22;9854;50.968;4.168;2022-07-17T02:28:37;16.40;99.90
19437;DHT22;9854;50.968;4.168;2022-07-17T02:31:02;16.40;99.90
19437;DHT22;9854;50.968;4.168;2022-07-17T02:33:28;16.30;99.90
19437;DHT22;9854;50.968;4.168;2022-07-17T02:35:54;16.40;99.90
19437;DHT22;9854;50.968;4.168;2022-07-17T02:38:19;16.60;99.90
19437;DHT22;9854;50.968;4.168;2022-07-17T02:40:45;16.60;99.90
19437;DHT22;9854;50.968;4.168;2022-07-17T02:43:11;16.60;99.90
19437;DHT22;9854;50.968;4.168;2022-07-17T02:45:37;16.40;99.90
19437;DHT22;9854;50.968;4.168;2022-07-17T02:48:03;16.30;99.90
19437;DHT22;9854;50.968;4.168;2022-07-17T02:50:28;16.10;99.90
19437;DHT22;9854;50.968;4.168;2022-07-17T02:52:54;15.90;99.90
19437;DHT22;9854;50.968;4.168;2022-07-17T02:55:21;15.80;99.90
19437;DHT22;9854;50.968;4.168;2022-07-17T02:57:47;15.90;99.90
19437;DHT22;9854;50.968;4.168;2022-07-17T03:00:15;16.00;99.90
19437;DHT22;9854;50.968;4.168;2022-07-17T03:02:44;16.10;99.90
19437;DHT22;9854;50.968;4.168;2022-07-17T03:05:12;15.90;99.90
19437;DHT22;9854;50.968;4.168;2022-07-17T03:07:38;15.70;99.90
19437;DHT22;9854;50.968;4.168;2022-07-17T03:10:04;15.80;99.90
19437;DHT22;9854;50.968;4.168;2022-07-17T03:12:30;15.80;99.90
19437;DHT22;9854;50.968;4.168;2022-07-17T03:14:56;16.00;99.90
19437;DHT22;9854;50.968;4.168;2022-07-17T03:17:21;15.90;99.90
19437;DHT22;9854;50.968;4.168;2022-07-17T03:19:47;15.80;99.90
19437;DHT22;9854;50.968;4.168;2022-07-17T03:22:13;15.90;99.90
19437;DHT22;9854;50.968;4.168;2022-07-17T03:24:39;15.90;99.90
19437;DHT22;9854;50.968;4.168;2022-07-17T03:27:04;15.80;99.90
19437;DHT22;9854;50.968;4.168;2022-07-17T03:29:30;15.80;99.90
19437;DHT22;9854;50.968;4.168;2022-07-17T03:31:55;15.90;99.90
19437;DHT22;9854;50.968;4.168;2022-07-17T03:34:21;15.90;99.90
19437;DHT22;9854;50.968;4.168;2022-07-17T03:36:47;16.00;99.90
19437;DHT22;9854;50.968;4.168;2022-07-17T03:39:14;16.10;99.90
19437;DHT22;9854;50.968;4.168;2022-07-17T03:41:39;15.90;99.90
19437;DHT22;9854;50.968;4.168;2022-07-17T03:44:05;15.90;99.90
19437;DHT22;9854;50.968;4.168;2022-07-17T03:46:30;15.90;99.90
19437;DHT22;9854;50.968;4.168;2022-07-17T03:48:56;16.00;99.90
19437;DHT22;9854;50.968;4.168;2022-07-17T03:51:22;16.00;99.90
19437;DHT22;9854;50.968;4.168;2022-07-17T03:53:47;15.90;99.90
19437;DHT22;9854;50.968;4.168;2022-07-17T03:56:13;15.80;99.90
19437;DHT22;9854;50.968;4.168;2022-07-17T03:58:39;15.60;99.90
19437;DHT22;9854;50.968;4.168;2022-07-17T04:01:05;15.70;99.90
19437;DHT22;9854;50.968;4.168;2022-07-17T04:03:31;15.80;99.90
19437;DHT22;9854;50.968;4.168;2022-07-17T04:05:56;15.60;99.90
19437;DHT22;9854;50.968;4.168;2022-07-17T04:08:22;15.40;99.90
19437;DHT22;9854;50.968;4.168;2022-07-17T04:10:48;15.20;99.90
19437;DHT22;9854;50.968;4.168;2022-07-17T04:13:13;15.10;99.90
19437;DHT22;9854;50.968;4.168;2022-07-17T04:15:39;15.10;99.90
19437;DHT22;9854;50.968;4.168;2022-07-17T04:18:30;15.30;99.90
19437;DHT22;9854;50.968;4.168;2022-07-17T04:21:01;15.50;99.90
19437;DHT22;9854;50.968;4.168;2022-07-17T04:23:27;15.50;99.90
19437;DHT22;9854;50.968;4.168;2022-07-17T04:25:53;15.60;99.90
19437;DHT22;9854;50.968;4.168;2022-07-17T04:28:18;15.70;99.90
19437;DHT22;9854;50.968;4.168;2022-07-17T04:30:44;16.20;99.90
19437;DHT22;9854;50.968;4.168;2022-07-17T04:33:10;16.50;99.90
19437;DHT22;9854;50.968;4.168;2022-07-17T04:35:37;16.30;99.90
19437;DHT22;9854;50.968;4.168;2022-07-17T04:38:04;15.90;99.90
19437;DHT22;9854;50.968;4.168;2022-07-17T04:40:31;15.80;99.90
19437;DHT22;9854;50.968;4.168;2022-07-17T04:42:57;15.50;99.90
19437;DHT22;9854;50.968;4.168;2022-07-17T04:45:22;15.50;99.90
19437;DHT22;9854;50.968;4.168;2022-07-17T04:47:48;15.40;99.90
19437;DHT22;9854;50.968;4.168;2022-07-17T04:50:14;15.50;99.90
19437;DHT22;9854;50.968;4.168;2022-07-17T04:52:40;15.70;99.90
19437;DHT22;9854;50.968;4.168;2022-07-17T04:55:06;15.80;99.90
19437;DHT22;9854;50.968;4.168;2022-07-17T04:57:32;15.90;99.90
19437;DHT22;9854;50.968;4.168;2022-07-17T04:59:57;15.90;99.90
19437;DHT22;9854;50.968;4.168;2022-07-17T05:02:23;16.00;99.90
19437;DHT22;9854;50.968;4.168;2022-07-17T05:04:49;16.00;99.90
19437;DHT22;9854;50.968;4.168;2022-07-17T05:07:15;16.10;99.90
19437;DHT22;9854;50.968;4.168;2022-07-17T05:09:41;16.10;99.90
19437;DHT22;9854;50.968;4.168;2022-07-17T05:12:07;16.10;99.90
19437;DHT22;9854;50.968;4.168;2022-07-17T05:14:32;16.10;99.90
19437;DHT22;9854;50.968;4.168;2022-07-17T05:16:58;16.20;99.90
19437;DHT22;9854;50.968;4.168;2022-07-17T05:19:23;16.40;99.90
19437;DHT22;9854;50.968;4.168;2022-07-17T05:21:50;16.50;99.90
19437;DHT22;9854;50.968;4.168;2022-07-17T05:24:15;16.60;99.90
19437;DHT22;9854;50.968;4.168;2022-07-17T05:26:41;16.60;99.90
19437;DHT22;9854;50.968;4.168;2022-07-17T05:29:07;16.90;99.90
19437;DHT22;9854;50.968;4.168;2022-07-17T05:31:33;17.10;99.90
19437;DHT22;9854;50.968;4.168;2022-07-17T05:33:58;17.20;99.90
19437;DHT22;9854;50.968;4.168;2022-07-17T05:36:24;17.40;99.90
19437;DHT22;9854;50.968;4.168;2022-07-17T05:38:50;17.20;99.90
19437;DHT22;9854;50.968;4.168;2022-07-17T05:41:15;17.10;99.90
19437;DHT22;9854;50.968;4.168;2022-07-17T05:43:41;17.10;99.90
19437;DHT22;9854;50.968;4.168;2022-07-17T05:46:06;17.20;99.90
19437;DHT22;9854;50.968;4.168;2022-07-17T05:48:32;17.50;99.90
19437;DHT22;9854;50.968;4.168;2022-07-17T05:50:58;17.40;99.90
19437;DHT22;9854;50.968;4.168;2022-07-17T05:53:23;17.50;99.90
19437;DHT22;9854;50.968;4.168;2022-07-17T05:55:49;17.50;99.90
19437;DHT22;9854;50.968;4.168;2022-07-17T05:58:15;17.60;99.90
19437;DHT22;9854;50.968;4.168;2022-07-17T06:00:41;17.60;99.90
19437;DHT22;9854;50.968;4.168;2022-07-17T06:03:06;17.70;99.90
19437;DHT22;9854;50.968;4.168;2022-07-17T06:05:32;17.80;99.90
19437;DHT22;9854;50.968;4.168;2022-07-17T06:07:58;17.80;99.90
19437;DHT22;9854;50.968;4.168;2022-07-17T06:10:26;17.90;99.90
19437;DHT22;9854;50.968;4.168;2022-07-17T06:12:52;18.00;99.90
19437;DHT22;9854;50.968;4.168;2022-07-17T06:15:19;18.10;99.90
19437;DHT22;9854;50.968;4.168;2022-07-17T06:17:45;18.20;99.90
19437;DHT22;9854;50.968;4.168;2022-07-17T06:20:12;18.30;99.90
19437;DHT22;9854;50.968;4.168;2022-07-17T06:22:38;18.30;99.90
19437;DHT22;9854;50.968;4.168;2022-07-17T06:25:04;18.40;99.90
19437;DHT22;9854;50.968;4.168;2022-07-17T06:27:30;18.40;99.90
19437;DHT22;9854;50.968;4.168;2022-07-17T06:29:55;18.60;99.90
19437;DHT22;9854;50.968;4.168;2022-07-17T06:32:21;18.70;99.90
19437;DHT22;9854;50.968;4.168;2022-07-17T06:34:47;18.80;99.90
19437;DHT22;9854;50.968;4.168;2022-07-17T06:37:12;18.90;99.90
19437;DHT22;9854;50.968;4.168;2022-07-17T06:39:38;19.00;99.90
19437;DHT22;9854;50.968;4.168;2022-07-17T06:42:04;19.00;99.90
19437;DHT22;9854;50.968;4.168;2022-07-17T06:44:29;19.20;99.90
19437;DHT22;9854;50.968;4.168;2022-07-17T06:46:55;19.20;99.90
19437;DHT22;9854;50.968;4.168;2022-07-17T06:49:21;19.30;99.90
19437;DHT22;9854;50.968;4.168;2022-07-17T06:51:46;19.40;99.90
19437;DHT22;9854;50.968;4.168;2022-07-17T06:54:14;19.30;99.90
19437;DHT22;9854;50.968;4.168;2022-07-17T06:56:39;19.50;99.90
19437;DHT22;9854;50.968;4.168;2022-07-17T06:59:05;19.60;99.90
19437;DHT22;9854;50.968;4.168;2022-07-17T07:01:36;19.60;99.90
19437;DHT22;9854;50.968;4.168;2022-07-17T07:04:02;19.80;99.90
19437;DHT22;9854;50.968;4.168;2022-07-17T07:06:30;19.80;99.90
19437;DHT22;9854;50.968;4.168;2022-07-17T07:08:56;19.90;99.90
19437;DHT22;9854;50.968;4.168;2022-07-17T07:11:22;19.90;99.90
19437;DHT22;9854;50.968;4.168;2022-07-17T07:13:48;20.00;99.90
19437;DHT22;9854;50.968;4.168;2022-07-17T07:16:14;20.10;99.90
19437;DHT22;9854;50.968;4.168;2022-07-17T07:18:40;20.10;99.90
19437;DHT22;9854;50.968;4.168;2022-07-17T07:21:05;20.20;99.90
19437;DHT22;9854;50.968;4.168;2022-07-17T07:23:31;20.30;99.90
19437;DHT22;9854;50.968;4.168;2022-07-17T07:25:56;20.10;99.90
19437;DHT22;9854;50.968;4.168;2022-07-17T07:28:22;20.10;99.90
19437;DHT22;9854;50.968;4.168;2022-07-17T07:30:48;20.20;99.90
19437;DHT22;9854;50.968;4.168;2022-07-17T07:33:14;20.10;99.90
19437;DHT22;9854;50.968;4.168;2022-07-17T07:35:41;20.20;99.90
19437;DHT22;9854;50.968;4.168;2022-07-17T07:38:08;20.30;99.90
19437;DHT22;9854;50.968;4.168;2022-07-17T07:40:34;20.50;99.90
19437;DHT22;9854;50.968;4.168;2022-07-17T07:42:59;20.60;99.90
19437;DHT22;9854;50.968;4.168;2022-07-17T07:45:25;20.80;99.90
19437;DHT22;9854;50.968;4.168;2022-07-17T07:47:51;20.90;99.90
19437;DHT22;9854;50.968;4.168;2022-07-17T07:50:18;21.00;99.90
19437;DHT22;9854;50.968;4.168;2022-07-17T07:52:44;21.10;99.90
19437;DHT22;9854;50.968;4.168;2022-07-17T07:55:11;20.80;99.90
19437;DHT22;9854;50.968;4.168;2022-07-17T07:57:37;20.80;99.90
19437;DHT22;9854;50.968;4.168;2022-07-17T08:00:07;21.00;99.90
19437;DHT22;9854;50.968;4.168;2022-07-17T08:02:33;21.10;99.90
19437;DHT22;9854;50.968;4.168;2022-07-17T08:04:59;21.10;99.90
19437;DHT22;9854;50.968;4.168;2022-07-17T08:07:26;21.30;99.90
19437;DHT22;9854;50.968;4.168;2022-07-17T08:09:52;21.30;99.90
19437;DHT22;9854;50.968;4.168;2022-07-17T08:12:18;21.60;99.90
19437;DHT22;9854;50.968;4.168;2022-07-17T08:14:43;21.70;99.90
19437;DHT22;9854;50.968;4.168;2022-07-17T08:17:09;21.70;99.90
19437;DHT22;9854;50.968;4.168;2022-07-17T08:19:35;21.80;99.90
19437;DHT22;9854;50.968;4.168;2022-07-17T08:22:00;21.70;99.90
19437;DHT22;9854;50.968;4.168;2022-07-17T08:24:26;22.00;99.90
19437;DHT22;9854;50.968;4.168;2022-07-17T08:26:52;22.00;99.90
19437;DHT22;9854;50.968;4.168;2022-07-17T08:29:18;22.00;99.90
19437;DHT22;9854;50.968;4.168;2022-07-17T08:31:43;22.20;99.90
19437;DHT22;9854;50.968;4.168;2022-07-17T08:34:09;22.30;99.90
19437;DHT22;9854;50.968;4.168;2022-07-17T08:36:35;22.30;99.90
19437;DHT22;9854;50.968;4.168;2022-07-17T08:39:01;22.50;99.90
19437;DHT22;9854;50.968;4.168;2022-07-17T08:41:28;22.70;99.90
19437;DHT22;9854;50.968;4.168;2022-07-17T08:43:54;22.70;99.90
19437;DHT22;9854;50.968;4.168;2022-07-17T08:46:23;22.80;99.90
19437;DHT22;9854;50.968;4.168;2022-07-17T08:48:57;22.80;99.90
19437;DHT22;9854;50.968;4.168;2022-07-17T08:51:26;23.00;99.90
19437;DHT22;9854;50.968;4.168;2022-07-17T08:53:53;23.00;99.90
19437;DHT22;9854;50.968;4.168;2022-07-17T08:56:19;23.00;99.90
19437;DHT22;9854;50.968;4.168;2022-07-17T08:58:45;23.20;99.90
19437;DHT22;9854;50.968;4.168;2022-07-17T09:01:10;23.30;99.90
19437;DHT22;9854;50.968;4.168;2022-07-17T09:03:36;23.50;99.90
19437;DHT22;9854;50.968;4.168;2022-07-17T09:06:04;23.70;99.90
19437;DHT22;9854;50.968;4.168;2022-07-17T09:08:29;24.00;99.90
19437;DHT22;9854;50.968;4.168;2022-07-17T09:10:58;24.00;99.90
19437;DHT22;9854;50.968;4.168;2022-07-17T09:13:29;24.30;99.90
19437;DHT22;9854;50.968;4.168;2022-07-17T09:16:06;24.30;99.90
19437;DHT22;9854;50.968;4.168;2022-07-17T09:18:49;24.20;99.90
19437;DHT22;9854;50.968;4.168;2022-07-17T09:21:20;24.70;99.90
19437;DHT22;9854;50.968;4.168;2022-07-17T09:24:04;24.50;99.90
19437;DHT22;9854;50.968;4.168;2022-07-17T09:26:30;24.40;99.90
19437;DHT22;9854;50.968;4.168;2022-07-17T09:29:00;24.20;99.90
19437;DHT22;9854;50.968;4.168;2022-07-17T09:31:27;24.30;99.90
19437;DHT22;9854;50.968;4.168;2022-07-17T09:33:53;24.40;99.90
19437;DHT22;9854;50.968;4.168;2022-07-17T09:36:19;24.70;99.90
19437;DHT22;9854;50.968;4.168;2022-07-17T09:38:45;24.50;99.90
19437;DHT22;9854;50.968;4.168;2022-07-17T09:41:14;24.60;99.90
19437;DHT22;9854;50.968;4.168;2022-07-17T09:43:58;24.60;99.90
19437;DHT22;9854;50.968;4.168;2022-07-17T09:46:26;24.70;99.90
19437;DHT22;9854;50.968;4.168;2022-07-17T09:49:03;24.80;99.90
19437;DHT22;9854;50.968;4.168;2022-07-17T09:51:31;24.70;99.90
19437;DHT22;9854;50.968;4.168;2022-07-17T09:54:02;24.60;99.90
19437;DHT22;9854;50.968;4.168;2022-07-17T09:56:30;24.70;99.90
19437;DHT22;9854;50.968;4.168;2022-07-17T09:59:10;24.90;99.90
19437;DHT22;9854;50.968;4.168;2022-07-17T10:01:38;24.70;99.90
19437;DHT22;9854;50.968;4.168;2022-07-17T10:04:04;24.90;99.90
19437;DHT22;9854;50.968;4.168;2022-07-17T10:06:30;25.20;99.90
19437;DHT22;9854;50.968;4.168;2022-07-17T10:08:56;25.30;99.90
19437;DHT22;9854;50.968;4.168;2022-07-17T10:11:24;25.20;99.90
19437;DHT22;9854;50.968;4.168;2022-07-17T10:13:53;25.30;99.90
19437;DHT22;9854;50.968;4.168;2022-07-17T10:16:30;25.50;99.90
19437;DHT22;9854;50.968;4.168;2022-07-17T10:18:57;25.30;99.90
19437;DHT22;9854;50.968;4.168;2022-07-17T10:21:24;25.50;99.90
19437;DHT22;9854;50.968;4.168;2022-07-17T10:26:16;26.00;99.90
19437;DHT22;9854;50.968;4.168;2022-07-17T10:28:45;25.90;99.90
19437;DHT22;9854;50.968;4.168;2022-07-17T10:31:23;26.00;99.90
19437;DHT22;9854;50.968;4.168;2022-07-17T10:33:59;25.70;99.90
19437;DHT22;9854;50.968;4.168;2022-07-17T10:36:44;25.70;99.90
19437;DHT22;9854;50.968;4.168;2022-07-17T10:39:17;25.80;99.90
19437;DHT22;9854;50.968;4.168;2022-07-17T10:41:58;25.70;99.90
19437;DHT22;9854;50.968;4.168;2022-07-17T10:44:30;25.90;99.90
19437;DHT22;9854;50.968;4.168;2022-07-17T10:46:58;26.10;99.90
19437;DHT22;9854;50.968;4.168;2022-07-17T10:49:24;26.30;99.90
19437;DHT22;9854;50.968;4.168;2022-07-17T10:51:50;26.30;99.90
19437;DHT22;9854;50.968;4.168;2022-07-17T10:54:18;26.80;99.90
19437;DHT22;9854;50.968;4.168;2022-07-17T10:56:44;26.50;99.90
19437;DHT22;9854;50.968;4.168;2022-07-17T10:59:12;26.50;99.90
19437;DHT22;9854;50.968;4.168;2022-07-17T11:01:38;26.60;99.90
19437;DHT22;9854;50.968;4.168;2022-07-17T11:04:04;26.60;99.90
19437;DHT22;9854;50.968;4.168;2022-07-17T11:06:42;26.40;99.90
19437;DHT22;9854;50.968;4.168;2022-07-17T11:09:09;26.60;99.90
19437;DHT22;9854;50.968;4.168;2022-07-17T11:11:48;26.50;99.90
19437;DHT22;9854;50.968;4.168;2022-07-17T11:14:18;26.60;99.90
19437;DHT22;9854;50.968;4.168;2022-07-17T11:16:48;26.90;99.90
19437;DHT22;9854;50.968;4.168;2022-07-17T11:19:31;26.70;99.90
19437;DHT22;9854;50.968;4.168;2022-07-17T11:22:07;27.00;99.90
19437;DHT22;9854;50.968;4.168;2022-07-17T11:24:45;27.30;99.90
19437;DHT22;9854;50.968;4.168;2022-07-17T11:27:25;27.50;99.90
19437;DHT22;9854;50.968;4.168;2022-07-17T11:29:53;27.30;99.90
19437;DHT22;9854;50.968;4.168;2022-07-17T11:32:19;27.60;99.90
19437;DHT22;9854;50.968;4.168;2022-07-17T11:34:46;27.90;99.90
19437;DHT22;9854;50.968;4.168;2022-07-17T11:37:12;28.10;99.90
19437;DHT22;9854;50.968;4.168;2022-07-17T11:39:45;28.30;99.90
19437;DHT22;9854;50.968;4.168;2022-07-17T11:42:22;28.20;99.90
19437;DHT22;9854;50.968;4.168;2022-07-17T11:44:54;28.20;99.90
19437;DHT22;9854;50.968;4.168;2022-07-17T11:47:22;28.60;99.90
19437;DHT22;9854;50.968;4.168;2022-07-17T11:49:48;28.10;99.90
19437;DHT22;9854;50.968;4.168;2022-07-17T11:52:16;28.10;99.90
19437;DHT22;9854;50.968;4.168;2022-07-17T11:57:16;27.80;99.90
19437;DHT22;9854;50.968;4.168;2022-07-17T11:59:43;27.50;99.90
19437;DHT22;9854;50.968;4.168;2022-07-17T12:02:10;27.60;99.90
19437;DHT22;9854;50.968;4.168;2022-07-17T12:04:47;27.20;99.90
19437;DHT22;9854;50.968;4.168;2022-07-17T12:07:13;27.30;99.90
19437;DHT22;9854;50.968;4.168;2022-07-17T12:09:38;27.30;99.90
19437;DHT22;9854;50.968;4.168;2022-07-17T12:12:04;27.40;99.90
19437;DHT22;9854;50.968;4.168;2022-07-17T12:14:30;27.70;99.90
19437;DHT22;9854;50.968;4.168;2022-07-17T12:16:57;27.90;99.90
19437;DHT22;9854;50.968;4.168;2022-07-17T12:19:27;27.90;99.90
19437;DHT22;9854;50.968;4.168;2022-07-17T12:22:01;28.20;99.90
19437;DHT22;9854;50.968;4.168;2022-07-17T12:24:29;28.40;99.90
19437;DHT22;9854;50.968;4.168;2022-07-17T12:27:01;28.40;99.90
19437;DHT22;9854;50.968;4.168;2022-07-17T12:29:28;28.30;99.90
19437;DHT22;9854;50.968;4.168;2022-07-17T12:32:11;28.30;99.90
19437;DHT22;9854;50.968;4.168;2022-07-17T12:34:42;28.40;99.90
19437;DHT22;9854;50.968;4.168;2022-07-17T12:37:16;28.70;99.90
19437;DHT22;9854;50.968;4.168;2022-07-17T12:39:42;29.10;99.90
19437;DHT22;9854;50.968;4.168;2022-07-17T12:42:08;29.20;99.90
19437;DHT22;9854;50.968;4.168;2022-07-17T12:44:35;29.40;99.90
19437;DHT22;9854;50.968;4.168;2022-07-17T12:47:01;29.40;99.90
19437;DHT22;9854;50.968;4.168;2022-07-17T12:49:27;29.40;99.90
19437;DHT22;9854;50.968;4.168;2022-07-17T12:51:53;29.90;99.90
19437;DHT22;9854;50.968;4.168;2022-07-17T12:54:19;30.20;99.90
19437;DHT22;9854;50.968;4.168;2022-07-17T12:56:44;30.20;99.90
19437;DHT22;9854;50.968;4.168;2022-07-17T12:59:10;29.50;99.90
19437;DHT22;9854;50.968;4.168;2022-07-17T13:01:36;29.10;99.90
19437;DHT22;9854;50.968;4.168;2022-07-17T13:04:02;29.40;99.90
19437;DHT22;9854;50.968;4.168;2022-07-17T13:06:28;29.90;99.90
19437;DHT22;9854;50.968;4.168;2022-07-17T13:08:53;29.50;99.90
19437;DHT22;9854;50.968;4.168;2022-07-17T13:11:19;29.60;99.90
19437;DHT22;9854;50.968;4.168;2022-07-17T13:13:45;29.60;99.90
19437;DHT22;9854;50.968;4.168;2022-07-17T13:16:12;29.80;99.90
19437;DHT22;9854;50.968;4.168;2022-07-17T13:18:38;29.80;99.90
19437;DHT22;9854;50.968;4.168;2022-07-17T13:21:05;29.60;99.90
19437;DHT22;9854;50.968;4.168;2022-07-17T13:23:32;29.50;99.90
19437;DHT22;9854;50.968;4.168;2022-07-17T13:25:59;29.50;99.90
19437;DHT22;9854;50.968;4.168;2022-07-17T13:28:25;29.50;99.90
19437;DHT22;9854;50.968;4.168;2022-07-17T13:30:50;29.50;99.90
19437;DHT22;9854;50.968;4.168;2022-07-17T13:33:16;29.70;99.90
19437;DHT22;9854;50.968;4.168;2022-07-17T13:35:42;30.30;99.90
19437;DHT22;9854;50.968;4.168;2022-07-17T13:38:07;30.40;99.90
19437;DHT22;9854;50.968;4.168;2022-07-17T13:40:34;30.10;99.90
19437;DHT22;9854;50.968;4.168;2022-07-17T13:43:01;30.40;99.90
19437;DHT22;9854;50.968;4.168;2022-07-17T13:45:27;30.50;99.90
19437;DHT22;9854;50.968;4.168;2022-07-17T13:47:53;30.80;99.90
19437;DHT22;9854;50.968;4.168;2022-07-17T13:50:19;31.20;99.90
19437;DHT22;9854;50.968;4.168;2022-07-17T13:52:45;31.10;99.90
19437;DHT22;9854;50.968;4.168;2022-07-17T13:55:11;30.60;99.90
19437;DHT22;9854;50.968;4.168;2022-07-17T13:57:37;30.20;99.90
19437;DHT22;9854;50.968;4.168;2022-07-17T14:00:04;29.80;99.90
19437;DHT22;9854;50.968;4.168;2022-07-17T14:02:30;30.40;99.90
19437;DHT22;9854;50.968;4.168;2022-07-17T14:04:56;30.90;99.90
19437;DHT22;9854;50.968;4.168;2022-07-17T14:07:21;30.60;99.90
19437;DHT22;9854;50.968;4.168;2022-07-17T14:09:47;30.60;99.90
19437;DHT22;9854;50.968;4.168;2022-07-17T14:12:12;30.90;99.90
19437;DHT22;9854;50.968;4.168;2022-07-17T14:14:38;31.00;99.90
19437;DHT22;9854;50.968;4.168;2022-07-17T14:17:04;31.30;99.90
19437;DHT22;9854;50.968;4.168;2022-07-17T14:19:30;31.80;99.90
19437;DHT22;9854;50.968;4.168;2022-07-17T14:21:55;31.30;99.20
19437;DHT22;9854;50.968;4.168;2022-07-17T14:24:21;30.80;98.90
19437;DHT22;9854;50.968;4.168;2022-07-17T14:26:47;30.60;99.40
19437;DHT22;9854;50.968;4.168;2022-07-17T14:29:13;30.90;99.80
19437;DHT22;9854;50.968;4.168;2022-07-17T14:31:39;31.60;98.90
19437;DHT22;9854;50.968;4.168;2022-07-17T14:34:05;32.50;98.10
19437;DHT22;9854;50.968;4.168;2022-07-17T14:36:31;32.90;97.40
19437;DHT22;9854;50.968;4.168;2022-07-17T14:38:57;32.90;96.60
19437;DHT22;9854;50.968;4.168;2022-07-17T14:41:23;33.50;95.90
19437;DHT22;9854;50.968;4.168;2022-07-17T14:43:48;33.80;94.70
19437;DHT22;9854;50.968;4.168;2022-07-17T14:46:14;34.20;94.30
19437;DHT22;9854;50.968;4.168;2022-07-17T14:48:40;34.30;93.50
19437;DHT22;9854;50.968;4.168;2022-07-17T14:51:06;35.00;91.90
19437;DHT22;9854;50.968;4.168;2022-07-17T14:53:31;35.40;92.20
19437;DHT22;9854;50.968;4.168;2022-07-17T14:55:57;35.00;91.10
19437;DHT22;9854;50.968;4.168;2022-07-17T14:58:23;34.70;90.70
19437;DHT22;9854;50.968;4.168;2022-07-17T15:00:48;35.60;89.70
19437;DHT22;9854;50.968;4.168;2022-07-17T15:03:14;36.90;87.10
19437;DHT22;9854;50.968;4.168;2022-07-17T15:05:40;36.90;85.00
19437;DHT22;9854;50.968;4.168;2022-07-17T15:08:07;37.60;84.20
19437;DHT22;9854;50.968;4.168;2022-07-17T15:10:33;38.90;79.10
19437;DHT22;9854;50.968;4.168;2022-07-17T15:12:59;38.60;80.00
19437;DHT22;9854;50.968;4.168;2022-07-17T15:15:25;39.40;81.80
19437;DHT22;9854;50.968;4.168;2022-07-17T15:17:50;38.20;76.40
19437;DHT22;9854;50.968;4.168;2022-07-17T15:20:16;37.80;78.20
19437;DHT22;9854;50.968;4.168;2022-07-17T15:22:42;38.70;77.20
19437;DHT22;9854;50.968;4.168;2022-07-17T15:25:08;38.70;72.20
19437;DHT22;9854;50.968;4.168;2022-07-17T15:27:34;39.50;71.90
19437;DHT22;9854;50.968;4.168;2022-07-17T15:30:00;39.80;71.30
19437;DHT22;9854;50.968;4.168;2022-07-17T15:32:26;39.20;71.40
19437;DHT22;9854;50.968;4.168;2022-07-17T15:34:52;38.00;73.20
19437;DHT22;9854;50.968;4.168;2022-07-17T15:37:17;39.20;72.00
19437;DHT22;9854;50.968;4.168;2022-07-17T15:39:49;39.80;70.60
19437;DHT22;9854;50.968;4.168;2022-07-17T15:42:15;40.40;69.10
19437;DHT22;9854;50.968;4.168;2022-07-17T15:44:40;38.90;70.50
19437;DHT22;9854;50.968;4.168;2022-07-17T15:47:06;39.70;71.10
19437;DHT22;9854;50.968;4.168;2022-07-17T15:49:33;39.10;71.10